sensor_id;sensor_type;location;lat;lon;timestamp;temperature;humidity
774;DHT22;370;48.810;9.150;2022-11-20T00:00:48;6.20;39.50
774;DHT22;370;48.810;9.150;2022-11-20T00:03:15;6.20;39.50
774;DHT22;370;48.810;9.150;2022-11-20T00:05:42;6.20;40.70
774;DHT22;370;48.810;9.150;2022-11-20T00:08:10;6.20;40.90
774;DHT22;370;48.810;9.150;2022-11-20T00:10:37;6.20;41.20
774;DHT22;370;48.810;9.150;2022-11-20T00:13:04;6.20;42.10
774;DHT22;370;48.810;9.150;2022-11-20T00:15:31;6.30;42.10
774;DHT22;370;48.810;9.150;2022-11-20T00:18:00;6.30;41.70
774;DHT22;370;48.810;9.150;2022-11-20T00:20:27;6.30;41.90
774;DHT22;370;48.810;9.150;2022-11-20T00:22:54;6.30;41.50
774;DHT22;370;48.810;9.150;2022-11-20T00:25:20;6.40;41.30
774;DHT22;370;48.810;9.150;2022-11-20T00:27:47;6.40;40.50
774;DHT22;370;48.810;9.150;2022-11-20T00:30:14;6.40;41.60
774;DHT22;370;48.810;9.150;2022-11-20T00:32:41;6.40;41.40
774;DHT22;370;48.810;9.150;2022-11-20T00:35:09;6.40;40.80
774;DHT22;370;48.810;9.150;2022-11-20T00:37:35;6.50;40.60
774;DHT22;370;48.810;9.150;2022-11-20T00:40:03;6.50;40.40
774;DHT22;370;48.810;9.150;2022-11-20T00:42:30;6.40;40.00
774;DHT22;370;48.810;9.150;2022-11-20T00:44:58;6.30;41.80
774;DHT22;370;48.810;9.150;2022-11-20T00:47:24;6.40;43.10
774;DHT22;370;48.810;9.150;2022-11-20T00:49:51;6.50;42.90
774;DHT22;370;48.810;9.150;2022-11-20T00:52:19;6.50;42.00
774;DHT22;370;48.810;9.150;2022-11-20T00:54:46;6.60;40.30
774;DHT22;370;48.810;9.150;2022-11-20T00:57:13;6.60;38.80
774;DHT22;370;48.810;9.150;2022-11-20T00:59:39;6.60;39.40
774;DHT22;370;48.810;9.150;2022-11-20T01:02:06;6.70;38.90
774;DHT22;370;48.810;9.150;2022-11-20T01:04:33;6.70;38.90
774;DHT22;370;48.810;9.150;2022-11-20T01:07:00;6.60;39.10
774;DHT22;370;48.810;9.150;2022-11-20T01:09:28;6.70;38.90
774;DHT22;370;48.810;9.150;2022-11-20T01:11:55;6.70;39.00
774;DHT22;370;48.810;9.150;2022-11-20T01:14:21;6.70;38.10
774;DHT22;370;48.810;9.150;2022-11-20T01:16:50;6.70;37.50
774;DHT22;370;48.810;9.150;2022-11-20T01:19:19;6.70;37.40
774;DHT22;370;48.810;9.150;2022-11-20T01:21:48;6.70;37.40
774;DHT22;370;48.810;9.150;2022-11-20T01:24:17;6.60;37.40
774;DHT22;370;48.810;9.150;2022-11-20T01:26:48;6.50;37.50
774;DHT22;370;48.810;9.150;2022-11-20T01:29:18;6.50;37.50
774;DHT22;370;48.810;9.150;2022-11-20T01:31:45;6.60;37.70
774;DHT22;370;48.810;9.150;2022-11-20T01:34:13;6.60;37.80
774;DHT22;370;48.810;9.150;2022-11-20T01:36:41;6.50;37.40
774;DHT22;370;48.810;9.150;2022-11-20T01:39:11;6.50;37.40
774;DHT22;370;48.810;9.150;2022-11-20T01:41:39;6.50;37.50
774;DHT22;370;48.810;9.150;2022-11-20T01:44:50;6.40;37.40
774;DHT22;370;48.810;9.150;2022-11-20T01:47:21;6.30;36.90
774;DHT22;370;48.810;9.150;2022-11-20T01:49:54;6.10;37.80
774;DHT22;370;48.810;9.150;2022-11-20T01:52:24;6.00;38.30
774;DHT22;370;48.810;9.150;2022-11-20T01:54:58;6.00;38.30
774;DHT22;370;48.810;9.150;2022-11-20T01:57:28;6.00;36.50
774;DHT22;370;48.810;9.150;2022-11-20T02:00:00;6.00;35.10
774;DHT22;370;48.810;9.150;2022-11-20T02:02:28;6.00;35.00
774;DHT22;370;48.810;9.150;2022-11-20T02:04:58;6.00;35.80
774;DHT22;370;48.810;9.150;2022-11-20T02:07:27;6.00;35.60
774;DHT22;370;48.810;9.150;2022-11-20T02:09:55;6.00;36.20
774;DHT22;370;48.810;9.150;2022-11-20T02:12:21;6.00;35.20
774;DHT22;370;48.810;9.150;2022-11-20T02:15:08;6.00;33.60
774;DHT22;370;48.810;9.150;2022-11-20T02:17:34;6.10;33.40
774;DHT22;370;48.810;9.150;2022-11-20T02:20:02;6.10;32.00
774;DHT22;370;48.810;9.150;2022-11-20T02:22:33;6.10;30.10
774;DHT22;370;48.810;9.150;2022-11-20T02:25:06;6.10;29.20
774;DHT22;370;48.810;9.150;2022-11-20T02:27:33;6.10;29.20
774;DHT22;370;48.810;9.150;2022-11-20T02:30:03;6.10;28.70
774;DHT22;370;48.810;9.150;2022-11-20T02:32:32;6.00;28.60
774;DHT22;370;48.810;9.150;2022-11-20T02:35:07;6.10;28.70
774;DHT22;370;48.810;9.150;2022-11-20T02:37:37;6.00;28.60
774;DHT22;370;48.810;9.150;2022-11-20T02:40:07;6.10;29.50
774;DHT22;370;48.810;9.150;2022-11-20T02:45:54;6.00;29.70
774;DHT22;370;48.810;9.150;2022-11-20T02:48:21;6.10;29.70
774;DHT22;370;48.810;9.150;2022-11-20T02:50:47;6.10;28.70
774;DHT22;370;48.810;9.150;2022-11-20T02:53:14;6.20;28.10
774;DHT22;370;48.810;9.150;2022-11-20T02:55:42;6.20;26.50
774;DHT22;370;48.810;9.150;2022-11-20T02:58:09;6.20;25.50
774;DHT22;370;48.810;9.150;2022-11-20T03:00:36;6.30;24.60
774;DHT22;370;48.810;9.150;2022-11-20T03:03:02;6.30;24.80
774;DHT22;370;48.810;9.150;2022-11-20T03:05:29;6.30;23.80
774;DHT22;370;48.810;9.150;2022-11-20T03:07:56;6.20;23.30
774;DHT22;370;48.810;9.150;2022-11-20T03:10:22;6.40;23.00
774;DHT22;370;48.810;9.150;2022-11-20T03:12:53;6.40;23.40
774;DHT22;370;48.810;9.150;2022-11-20T03:15:21;6.30;22.90
774;DHT22;370;48.810;9.150;2022-11-20T03:17:48;6.30;22.40
774;DHT22;370;48.810;9.150;2022-11-20T03:20:15;6.30;23.50
774;DHT22;370;48.810;9.150;2022-11-20T03:22:41;6.20;23.10
774;DHT22;370;48.810;9.150;2022-11-20T03:25:08;6.20;24.00
774;DHT22;370;48.810;9.150;2022-11-20T03:27:35;6.10;24.60
774;DHT22;370;48.810;9.150;2022-11-20T03:30:04;6.00;24.70
774;DHT22;370;48.810;9.150;2022-11-20T03:32:31;5.90;26.00
774;DHT22;370;48.810;9.150;2022-11-20T03:34:58;5.80;26.90
774;DHT22;370;48.810;9.150;2022-11-20T03:37:24;5.60;28.00
774;DHT22;370;48.810;9.150;2022-11-20T03:39:51;5.50;28.40
774;DHT22;370;48.810;9.150;2022-11-20T03:42:18;5.50;29.30
774;DHT22;370;48.810;9.150;2022-11-20T03:45:04;5.50;30.00
774;DHT22;370;48.810;9.150;2022-11-20T03:47:31;5.50;30.60
774;DHT22;370;48.810;9.150;2022-11-20T03:49:58;5.40;31.00
774;DHT22;370;48.810;9.150;2022-11-20T03:52:25;5.50;31.10
774;DHT22;370;48.810;9.150;2022-11-20T03:54:51;5.40;31.10
774;DHT22;370;48.810;9.150;2022-11-20T03:57:18;5.40;31.70
774;DHT22;370;48.810;9.150;2022-11-20T03:59:45;5.40;31.50
774;DHT22;370;48.810;9.150;2022-11-20T04:02:13;5.30;32.20
774;DHT22;370;48.810;9.150;2022-11-20T04:04:40;5.30;33.40
774;DHT22;370;48.810;9.150;2022-11-20T04:07:06;5.30;33.30
774;DHT22;370;48.810;9.150;2022-11-20T04:09:33;5.20;33.70
774;DHT22;370;48.810;9.150;2022-11-20T04:12:00;5.20;35.00
774;DHT22;370;48.810;9.150;2022-11-20T04:14:27;5.20;34.80
774;DHT22;370;48.810;9.150;2022-11-20T04:16:53;5.20;35.20
774;DHT22;370;48.810;9.150;2022-11-20T04:19:21;5.30;34.30
774;DHT22;370;48.810;9.150;2022-11-20T04:21:48;5.30;33.70
774;DHT22;370;48.810;9.150;2022-11-20T04:24:15;5.20;34.40
774;DHT22;370;48.810;9.150;2022-11-20T04:26:42;5.30;34.10
774;DHT22;370;48.810;9.150;2022-11-20T04:29:10;5.40;32.80
774;DHT22;370;48.810;9.150;2022-11-20T04:31:37;5.40;32.30
774;DHT22;370;48.810;9.150;2022-11-20T04:34:06;5.40;31.90
774;DHT22;370;48.810;9.150;2022-11-20T04:36:34;5.50;32.10
774;DHT22;370;48.810;9.150;2022-11-20T04:39:03;5.50;32.70
774;DHT22;370;48.810;9.150;2022-11-20T04:41:32;5.50;32.50
774;DHT22;370;48.810;9.150;2022-11-20T04:44:01;5.60;31.60
774;DHT22;370;48.810;9.150;2022-11-20T04:46:29;5.70;30.80
774;DHT22;370;48.810;9.150;2022-11-20T04:48:57;5.80;28.90
774;DHT22;370;48.810;9.150;2022-11-20T04:51:23;5.90;28.50
774;DHT22;370;48.810;9.150;2022-11-20T04:53:52;5.90;28.50
774;DHT22;370;48.810;9.150;2022-11-20T04:56:18;6.00;27.40
774;DHT22;370;48.810;9.150;2022-11-20T04:58:45;6.00;27.50
774;DHT22;370;48.810;9.150;2022-11-20T05:01:14;5.90;26.80
774;DHT22;370;48.810;9.150;2022-11-20T05:03:41;6.00;25.90
774;DHT22;370;48.810;9.150;2022-11-20T05:06:10;6.00;26.60
774;DHT22;370;48.810;9.150;2022-11-20T05:08:36;6.10;26.80
774;DHT22;370;48.810;9.150;2022-11-20T05:11:07;6.20;25.80
774;DHT22;370;48.810;9.150;2022-11-20T05:13:34;6.20;24.00
774;DHT22;370;48.810;9.150;2022-11-20T05:16:02;6.30;24.20
774;DHT22;370;48.810;9.150;2022-11-20T05:18:29;6.30;24.00
774;DHT22;370;48.810;9.150;2022-11-20T05:20:56;6.30;22.90
774;DHT22;370;48.810;9.150;2022-11-20T05:23:23;6.30;22.30
774;DHT22;370;48.810;9.150;2022-11-20T05:25:52;6.40;22.80
774;DHT22;370;48.810;9.150;2022-11-20T05:28:21;6.40;21.90
774;DHT22;370;48.810;9.150;2022-11-20T05:30:49;6.40;21.20
774;DHT22;370;48.810;9.150;2022-11-20T05:33:16;6.50;21.80
774;DHT22;370;48.810;9.150;2022-11-20T05:35:43;6.50;21.40
774;DHT22;370;48.810;9.150;2022-11-20T05:38:10;6.50;21.10
774;DHT22;370;48.810;9.150;2022-11-20T05:40:37;6.50;21.60
774;DHT22;370;48.810;9.150;2022-11-20T05:43:04;6.50;22.30
774;DHT22;370;48.810;9.150;2022-11-20T05:45:32;6.60;21.50
774;DHT22;370;48.810;9.150;2022-11-20T05:47:59;6.60;20.80
774;DHT22;370;48.810;9.150;2022-11-20T05:50:26;6.70;20.90
774;DHT22;370;48.810;9.150;2022-11-20T05:52:53;6.80;21.00
774;DHT22;370;48.810;9.150;2022-11-20T05:55:20;6.70;20.20
774;DHT22;370;48.810;9.150;2022-11-20T05:57:47;6.80;20.90
774;DHT22;370;48.810;9.150;2022-11-20T06:00:14;6.80;19.90
774;DHT22;370;48.810;9.150;2022-11-20T06:02:43;6.80;20.40
774;DHT22;370;48.810;9.150;2022-11-20T06:05:12;6.90;20.10
774;DHT22;370;48.810;9.150;2022-11-20T06:07:38;7.00;19.10
774;DHT22;370;48.810;9.150;2022-11-20T06:10:05;6.90;18.90
774;DHT22;370;48.810;9.150;2022-11-20T06:12:32;7.00;19.50
774;DHT22;370;48.810;9.150;2022-11-20T06:14:59;6.90;18.70
774;DHT22;370;48.810;9.150;2022-11-20T06:17:26;7.00;18.80
774;DHT22;370;48.810;9.150;2022-11-20T06:19:54;7.00;18.50
774;DHT22;370;48.810;9.150;2022-11-20T06:22:21;6.90;18.30
774;DHT22;370;48.810;9.150;2022-11-20T06:24:47;7.00;18.60
774;DHT22;370;48.810;9.150;2022-11-20T06:27:15;6.90;19.00
774;DHT22;370;48.810;9.150;2022-11-20T06:29:42;6.90;19.10
774;DHT22;370;48.810;9.150;2022-11-20T06:32:09;6.90;18.90
774;DHT22;370;48.810;9.150;2022-11-20T06:34:35;6.90;18.80
774;DHT22;370;48.810;9.150;2022-11-20T06:37:03;6.80;18.70
774;DHT22;370;48.810;9.150;2022-11-20T06:39:30;6.70;19.30
774;DHT22;370;48.810;9.150;2022-11-20T06:41:57;6.70;20.80
774;DHT22;370;48.810;9.150;2022-11-20T06:44:24;6.70;20.20
774;DHT22;370;48.810;9.150;2022-11-20T06:46:50;6.70;20.30
774;DHT22;370;48.810;9.150;2022-11-20T06:49:17;6.80;20.00
774;DHT22;370;48.810;9.150;2022-11-20T06:51:44;6.80;20.10
774;DHT22;370;48.810;9.150;2022-11-20T06:54:12;6.80;20.50
774;DHT22;370;48.810;9.150;2022-11-20T06:56:39;6.80;19.30
774;DHT22;370;48.810;9.150;2022-11-20T06:59:06;6.80;18.50
774;DHT22;370;48.810;9.150;2022-11-20T07:01:33;6.80;18.50
774;DHT22;370;48.810;9.150;2022-11-20T07:04:00;6.80;18.30
774;DHT22;370;48.810;9.150;2022-11-20T07:06:27;6.80;18.00
774;DHT22;370;48.810;9.150;2022-11-20T07:08:54;6.80;18.00
774;DHT22;370;48.810;9.150;2022-11-20T07:11:22;6.80;17.80
774;DHT22;370;48.810;9.150;2022-11-20T07:13:49;6.90;17.90
774;DHT22;370;48.810;9.150;2022-11-20T07:16:16;6.90;17.30
774;DHT22;370;48.810;9.150;2022-11-20T07:18:43;6.90;16.80
774;DHT22;370;48.810;9.150;2022-11-20T07:21:10;7.00;16.50
774;DHT22;370;48.810;9.150;2022-11-20T07:23:37;7.00;16.70
774;DHT22;370;48.810;9.150;2022-11-20T07:26:05;7.00;17.30
774;DHT22;370;48.810;9.150;2022-11-20T07:28:33;7.00;15.80
774;DHT22;370;48.810;9.150;2022-11-20T07:31:01;7.10;16.70
774;DHT22;370;48.810;9.150;2022-11-20T07:33:28;7.10;16.90
774;DHT22;370;48.810;9.150;2022-11-20T07:35:54;7.10;15.80
774;DHT22;370;48.810;9.150;2022-11-20T07:38:21;7.10;16.00
774;DHT22;370;48.810;9.150;2022-11-20T07:40:48;7.20;15.80
774;DHT22;370;48.810;9.150;2022-11-20T07:43:19;7.20;15.60
774;DHT22;370;48.810;9.150;2022-11-20T07:45:47;7.30;15.40
774;DHT22;370;48.810;9.150;2022-11-20T07:48:14;7.40;16.30
774;DHT22;370;48.810;9.150;2022-11-20T07:50:40;7.50;17.30
774;DHT22;370;48.810;9.150;2022-11-20T07:53:07;7.60;16.00
774;DHT22;370;48.810;9.150;2022-11-20T07:55:34;7.60;15.10
774;DHT22;370;48.810;9.150;2022-11-20T07:58:01;7.50;16.50
774;DHT22;370;48.810;9.150;2022-11-20T08:00:28;7.50;16.50
774;DHT22;370;48.810;9.150;2022-11-20T08:02:56;7.40;17.20
774;DHT22;370;48.810;9.150;2022-11-20T08:05:23;7.50;18.80
774;DHT22;370;48.810;9.150;2022-11-20T08:07:50;7.70;16.40
774;DHT22;370;48.810;9.150;2022-11-20T08:10:17;7.70;16.70
774;DHT22;370;48.810;9.150;2022-11-20T08:12:44;7.70;15.30
774;DHT22;370;48.810;9.150;2022-11-20T08:15:29;7.70;16.20
774;DHT22;370;48.810;9.150;2022-11-20T08:18:02;7.80;14.90
774;DHT22;370;48.810;9.150;2022-11-20T08:20:30;7.90;15.60
774;DHT22;370;48.810;9.150;2022-11-20T08:23:04;7.90;13.80
774;DHT22;370;48.810;9.150;2022-11-20T08:25:34;8.10;13.20
774;DHT22;370;48.810;9.150;2022-11-20T08:28:06;8.30;11.60
774;DHT22;370;48.810;9.150;2022-11-20T08:30:33;8.40;11.70
774;DHT22;370;48.810;9.150;2022-11-20T08:33:03;8.50;11.20
774;DHT22;370;48.810;9.150;2022-11-20T08:35:33;8.50;10.80
774;DHT22;370;48.810;9.150;2022-11-20T08:38:01;8.50;9.50
774;DHT22;370;48.810;9.150;2022-11-20T08:40:28;8.50;10.00
774;DHT22;370;48.810;9.150;2022-11-20T08:42:55;8.60;10.50
774;DHT22;370;48.810;9.150;2022-11-20T08:45:22;8.90;9.50
774;DHT22;370;48.810;9.150;2022-11-20T08:47:49;9.10;7.10
774;DHT22;370;48.810;9.150;2022-11-20T08:50:17;9.50;7.10
774;DHT22;370;48.810;9.150;2022-11-20T08:52:44;9.70;4.80
774;DHT22;370;48.810;9.150;2022-11-20T08:55:11;9.90;4.00
774;DHT22;370;48.810;9.150;2022-11-20T08:57:38;10.10;3.30
774;DHT22;370;48.810;9.150;2022-11-20T09:00:07;10.10;1.60
774;DHT22;370;48.810;9.150;2022-11-20T09:02:34;10.10;1.10
774;DHT22;370;48.810;9.150;2022-11-20T09:05:01;9.90;2.10
774;DHT22;370;48.810;9.150;2022-11-20T09:07:30;9.80;2.70
774;DHT22;370;48.810;9.150;2022-11-20T09:09:56;9.70;2.10
774;DHT22;370;48.810;9.150;2022-11-20T09:12:24;9.80;3.10
774;DHT22;370;48.810;9.150;2022-11-20T09:14:50;9.80;3.10
774;DHT22;370;48.810;9.150;2022-11-20T09:17:17;9.80;2.60
774;DHT22;370;48.810;9.150;2022-11-20T09:19:45;9.80;3.50
774;DHT22;370;48.810;9.150;2022-11-20T09:22:12;9.80;3.10
774;DHT22;370;48.810;9.150;2022-11-20T09:24:41;9.70;3.80
774;DHT22;370;48.810;9.150;2022-11-20T09:27:08;9.60;4.80
774;DHT22;370;48.810;9.150;2022-11-20T09:29:35;9.80;4.10
774;DHT22;370;48.810;9.150;2022-11-20T09:32:02;9.90;3.60
774;DHT22;370;48.810;9.150;2022-11-20T09:34:29;9.90;3.00
774;DHT22;370;48.810;9.150;2022-11-20T09:36:55;9.80;4.20
774;DHT22;370;48.810;9.150;2022-11-20T09:39:22;9.80;3.70
774;DHT22;370;48.810;9.150;2022-11-20T09:42:08;9.70;3.90
774;DHT22;370;48.810;9.150;2022-11-20T09:44:50;9.60;4.10
774;DHT22;370;48.810;9.150;2022-11-20T09:47:26;9.60;4.80
774;DHT22;370;48.810;9.150;2022-11-20T09:50:07;9.60;4.10
774;DHT22;370;48.810;9.150;2022-11-20T09:52:46;9.50;4.50
774;DHT22;370;48.810;9.150;2022-11-20T09:55:16;9.50;4.80
774;DHT22;370;48.810;9.150;2022-11-20T09:57:47;9.30;5.30
774;DHT22;370;48.810;9.150;2022-11-20T10:00:16;9.20;5.60
774;DHT22;370;48.810;9.150;2022-11-20T10:02:48;9.10;5.70
774;DHT22;370;48.810;9.150;2022-11-20T10:05:18;9.10;6.30
774;DHT22;370;48.810;9.150;2022-11-20T10:07:50;9.10;7.20
774;DHT22;370;48.810;9.150;2022-11-20T10:10:29;9.10;6.80
774;DHT22;370;48.810;9.150;2022-11-20T10:13:11;9.00;6.30
774;DHT22;370;48.810;9.150;2022-11-20T10:15:50;9.10;6.80
774;DHT22;370;48.810;9.150;2022-11-20T10:18:28;8.90;7.60
774;DHT22;370;48.810;9.150;2022-11-20T10:21:03;8.90;9.40
774;DHT22;370;48.810;9.150;2022-11-20T10:23:54;8.80;9.60
774;DHT22;370;48.810;9.150;2022-11-20T10:26:28;8.70;10.40
774;DHT22;370;48.810;9.150;2022-11-20T10:29:09;8.50;14.30
774;DHT22;370;48.810;9.150;2022-11-20T10:31:39;8.40;18.40
774;DHT22;370;48.810;9.150;2022-11-20T10:34:14;8.20;24.90
774;DHT22;370;48.810;9.150;2022-11-20T10:36:46;7.90;28.30
774;DHT22;370;48.810;9.150;2022-11-20T10:39:17;7.90;32.40
774;DHT22;370;48.810;9.150;2022-11-20T10:41:49;7.70;35.60
774;DHT22;370;48.810;9.150;2022-11-20T10:44:21;7.70;36.00
774;DHT22;370;48.810;9.150;2022-11-20T10:47:03;7.60;36.00
774;DHT22;370;48.810;9.150;2022-11-20T10:49:31;7.60;38.50
774;DHT22;370;48.810;9.150;2022-11-20T10:52:03;7.50;39.60
774;DHT22;370;48.810;9.150;2022-11-20T10:54:36;7.30;38.70
774;DHT22;370;48.810;9.150;2022-11-20T10:57:15;7.30;42.90
774;DHT22;370;48.810;9.150;2022-11-20T11:00:05;7.30;46.30
774;DHT22;370;48.810;9.150;2022-11-20T11:02:35;7.50;47.60
774;DHT22;370;48.810;9.150;2022-11-20T11:05:11;7.70;48.70
774;DHT22;370;48.810;9.150;2022-11-20T11:07:41;7.80;48.00
774;DHT22;370;48.810;9.150;2022-11-20T11:10:15;8.00;49.90
774;DHT22;370;48.810;9.150;2022-11-20T11:12:44;8.00;46.50
774;DHT22;370;48.810;9.150;2022-11-20T11:15:24;8.00;45.30
774;DHT22;370;48.810;9.150;2022-11-20T11:17:51;8.00;46.90
774;DHT22;370;48.810;9.150;2022-11-20T11:20:30;8.10;44.80
774;DHT22;370;48.810;9.150;2022-11-20T11:23:01;8.10;42.50
774;DHT22;370;48.810;9.150;2022-11-20T11:25:31;8.20;45.60
774;DHT22;370;48.810;9.150;2022-11-20T11:28:02;9.40;60.70
774;DHT22;370;48.810;9.150;2022-11-20T11:30:41;12.20;66.00
774;DHT22;370;48.810;9.150;2022-11-20T11:33:10;14.80;24.20
774;DHT22;370;48.810;9.150;2022-11-20T11:35:44;16.60;9.50
774;DHT22;370;48.810;9.150;2022-11-20T11:38:14;18.50;1.00
774;DHT22;370;48.810;9.150;2022-11-20T11:40:43;20.70;1.00
774;DHT22;370;48.810;9.150;2022-11-20T11:43:19;21.50;1.00
774;DHT22;370;48.810;9.150;2022-11-20T11:46:22;22.40;1.00
774;DHT22;370;48.810;9.150;2022-11-20T11:48:55;23.60;1.00
774;DHT22;370;48.810;9.150;2022-11-20T11:51:26;24.60;1.00
774;DHT22;370;48.810;9.150;2022-11-20T11:53:55;25.60;1.00
774;DHT22;370;48.810;9.150;2022-11-20T11:56:33;26.40;1.00
774;DHT22;370;48.810;9.150;2022-11-20T11:59:04;26.00;1.00
774;DHT22;370;48.810;9.150;2022-11-20T12:01:40;24.20;1.00
774;DHT22;370;48.810;9.150;2022-11-20T12:04:17;23.60;1.00
774;DHT22;370;48.810;9.150;2022-11-20T12:06:48;24.40;1.00
774;DHT22;370;48.810;9.150;2022-11-20T12:09:18;24.80;1.00
774;DHT22;370;48.810;9.150;2022-11-20T12:11:52;25.30;1.00
774;DHT22;370;48.810;9.150;2022-11-20T12:14:27;25.40;1.00
774;DHT22;370;48.810;9.150;2022-11-20T12:16:58;25.60;1.00
774;DHT22;370;48.810;9.150;2022-11-20T12:19:30;25.70;1.00
774;DHT22;370;48.810;9.150;2022-11-20T12:22:05;26.00;1.00
774;DHT22;370;48.810;9.150;2022-11-20T12:24:42;25.70;1.00
774;DHT22;370;48.810;9.150;2022-11-20T12:27:31;24.00;1.00
774;DHT22;370;48.810;9.150;2022-11-20T12:30:07;21.80;1.00
774;DHT22;370;48.810;9.150;2022-11-20T12:35:48;19.00;1.00
774;DHT22;370;48.810;9.150;2022-11-20T12:38:41;17.20;1.00
774;DHT22;370;48.810;9.150;2022-11-20T12:41:18;16.10;1.00
774;DHT22;370;48.810;9.150;2022-11-20T12:44:18;15.40;1.00
774;DHT22;370;48.810;9.150;2022-11-20T12:47:14;14.80;1.00
774;DHT22;370;48.810;9.150;2022-11-20T12:49:59;14.30;1.00
774;DHT22;370;48.810;9.150;2022-11-20T12:52:46;14.00;1.00
774;DHT22;370;48.810;9.150;2022-11-20T12:55:31;13.80;1.00
774;DHT22;370;48.810;9.150;2022-11-20T12:58:08;13.70;1.00
774;DHT22;370;48.810;9.150;2022-11-20T13:00:39;13.30;1.00
774;DHT22;370;48.810;9.150;2022-11-20T13:03:27;12.90;1.00
774;DHT22;370;48.810;9.150;2022-11-20T13:06:03;12.70;1.00
774;DHT22;370;48.810;9.150;2022-11-20T13:08:35;12.70;1.00
774;DHT22;370;48.810;9.150;2022-11-20T13:11:09;12.60;1.00
774;DHT22;370;48.810;9.150;2022-11-20T13:13:47;12.50;1.00
774;DHT22;370;48.810;9.150;2022-11-20T13:16:23;12.50;1.00
774;DHT22;370;48.810;9.150;2022-11-20T13:18:52;12.50;1.00
774;DHT22;370;48.810;9.150;2022-11-20T13:21:21;12.30;1.00
774;DHT22;370;48.810;9.150;2022-11-20T13:23:50;12.10;1.00
774;DHT22;370;48.810;9.150;2022-11-20T13:26:19;12.10;1.00
774;DHT22;370;48.810;9.150;2022-11-20T13:28:48;11.80;1.00
774;DHT22;370;48.810;9.150;2022-11-20T13:31:30;11.40;1.00
774;DHT22;370;48.810;9.150;2022-11-20T13:33:58;11.00;1.00
774;DHT22;370;48.810;9.150;2022-11-20T13:36:28;10.70;1.00
774;DHT22;370;48.810;9.150;2022-11-20T13:38:57;10.50;1.00
774;DHT22;370;48.810;9.150;2022-11-20T13:41:26;10.30;1.00
774;DHT22;370;48.810;9.150;2022-11-20T13:44:05;10.10;1.00
774;DHT22;370;48.810;9.150;2022-11-20T13:46:37;9.90;1.00
774;DHT22;370;48.810;9.150;2022-11-20T13:49:09;9.80;1.00
774;DHT22;370;48.810;9.150;2022-11-20T13:51:42;9.60;1.00
774;DHT22;370;48.810;9.150;2022-11-20T13:54:37;9.60;1.00
774;DHT22;370;48.810;9.150;2022-11-20T14:00:12;9.80;1.00
774;DHT22;370;48.810;9.150;2022-11-20T14:02:40;9.80;1.00
774;DHT22;370;48.810;9.150;2022-11-20T14:05:17;10.00;1.00
774;DHT22;370;48.810;9.150;2022-11-20T14:07:45;10.10;1.00
774;DHT22;370;48.810;9.150;2022-11-20T14:10:22;9.90;1.00
774;DHT22;370;48.810;9.150;2022-11-20T14:12:49;9.70;1.00
774;DHT22;370;48.810;9.150;2022-11-20T14:15:28;9.60;1.00
774;DHT22;370;48.810;9.150;2022-11-20T14:17:55;9.50;1.00
774;DHT22;370;48.810;9.150;2022-11-20T14:20:25;9.30;1.00
774;DHT22;370;48.810;9.150;2022-11-20T14:22:53;9.10;1.00
774;DHT22;370;48.810;9.150;2022-11-20T14:25:23;9.00;1.00
774;DHT22;370;48.810;9.150;2022-11-20T14:27:54;8.90;1.00
774;DHT22;370;48.810;9.150;2022-11-20T14:30:23;8.90;1.00
774;DHT22;370;48.810;9.150;2022-11-20T14:32:53;8.90;1.00
774;DHT22;370;48.810;9.150;2022-11-20T14:35:23;8.90;1.00
774;DHT22;370;48.810;9.150;2022-11-20T14:37:50;8.90;1.00
774;DHT22;370;48.810;9.150;2022-11-20T14:40:25;8.90;1.00
774;DHT22;370;48.810;9.150;2022-11-20T14:42:53;8.80;1.00
774;DHT22;370;48.810;9.150;2022-11-20T14:45:21;8.80;1.00
774;DHT22;370;48.810;9.150;2022-11-20T14:47:49;8.80;1.00
774;DHT22;370;48.810;9.150;2022-11-20T14:50:20;8.70;1.00
774;DHT22;370;48.810;9.150;2022-11-20T14:52:52;8.70;1.00
774;DHT22;370;48.810;9.150;2022-11-20T14:55:29;8.70;1.00
774;DHT22;370;48.810;9.150;2022-11-20T14:57:57;8.60;1.30
774;DHT22;370;48.810;9.150;2022-11-20T15:00:25;8.60;1.10
774;DHT22;370;48.810;9.150;2022-11-20T15:02:52;8.50;1.40
774;DHT22;370;48.810;9.150;2022-11-20T15:05:20;8.40;1.60
774;DHT22;370;48.810;9.150;2022-11-20T15:07:50;8.50;2.10
774;DHT22;370;48.810;9.150;2022-11-20T15:10:22;8.30;2.90
774;DHT22;370;48.810;9.150;2022-11-20T15:12:52;8.30;2.60
774;DHT22;370;48.810;9.150;2022-11-20T15:15:23;8.20;2.60
774;DHT22;370;48.810;9.150;2022-11-20T15:17:52;8.10;3.10
774;DHT22;370;48.810;9.150;2022-11-20T15:20:30;8.10;3.60
774;DHT22;370;48.810;9.150;2022-11-20T15:22:57;8.00;4.00
774;DHT22;370;48.810;9.150;2022-11-20T15:25:23;7.90;4.40
774;DHT22;370;48.810;9.150;2022-11-20T15:27:55;7.90;4.40
774;DHT22;370;48.810;9.150;2022-11-20T15:30:22;7.80;4.90
774;DHT22;370;48.810;9.150;2022-11-20T15:32:49;7.70;5.40
774;DHT22;370;48.810;9.150;2022-11-20T15:35:16;7.60;6.30
774;DHT22;370;48.810;9.150;2022-11-20T15:37:43;7.50;6.60
774;DHT22;370;48.810;9.150;2022-11-20T15:40:11;7.50;7.00
774;DHT22;370;48.810;9.150;2022-11-20T15:42:38;7.40;8.10
774;DHT22;370;48.810;9.150;2022-11-20T15:45:28;7.30;8.70
774;DHT22;370;48.810;9.150;2022-11-20T15:47:56;7.30;9.20
774;DHT22;370;48.810;9.150;2022-11-20T15:50:26;7.20;9.50
774;DHT22;370;48.810;9.150;2022-11-20T15:52:53;7.10;10.40
774;DHT22;370;48.810;9.150;2022-11-20T15:55:20;7.10;10.90
774;DHT22;370;48.810;9.150;2022-11-20T15:57:47;7.10;11.10
774;DHT22;370;48.810;9.150;2022-11-20T16:00:15;7.00;11.60
774;DHT22;370;48.810;9.150;2022-11-20T16:02:43;7.00;11.80
774;DHT22;370;48.810;9.150;2022-11-20T16:05:11;7.00;12.00
774;DHT22;370;48.810;9.150;2022-11-20T16:07:38;7.00;12.60
774;DHT22;370;48.810;9.150;2022-11-20T16:10:06;7.00;12.60
774;DHT22;370;48.810;9.150;2022-11-20T16:12:34;7.00;12.60
774;DHT22;370;48.810;9.150;2022-11-20T16:15:18;7.00;12.60
774;DHT22;370;48.810;9.150;2022-11-20T16:18:03;6.90;12.50
774;DHT22;370;48.810;9.150;2022-11-20T16:20:30;7.00;12.60
774;DHT22;370;48.810;9.150;2022-11-20T16:22:57;7.10;12.70
774;DHT22;370;48.810;9.150;2022-11-20T16:25:24;7.00;12.60
774;DHT22;370;48.810;9.150;2022-11-20T16:27:51;7.00;12.60
774;DHT22;370;48.810;9.150;2022-11-20T16:30:17;7.10;12.70
774;DHT22;370;48.810;9.150;2022-11-20T16:32:44;7.10;12.70
774;DHT22;370;48.810;9.150;2022-11-20T16:35:12;7.10;13.00
774;DHT22;370;48.810;9.150;2022-11-20T16:37:39;7.10;12.90
774;DHT22;370;48.810;9.150;2022-11-20T16:40:08;7.10;13.30
774;DHT22;370;48.810;9.150;2022-11-20T16:42:36;7.10;13.30
774;DHT22;370;48.810;9.150;2022-11-20T16:45:04;7.20;12.70
774;DHT22;370;48.810;9.150;2022-11-20T16:47:32;7.10;12.70
774;DHT22;370;48.810;9.150;2022-11-20T16:49:59;7.20;12.70
774;DHT22;370;48.810;9.150;2022-11-20T16:52:28;7.20;12.70
774;DHT22;370;48.810;9.150;2022-11-20T16:54:55;7.20;12.70
774;DHT22;370;48.810;9.150;2022-11-20T16:57:22;7.30;12.80
774;DHT22;370;48.810;9.150;2022-11-20T16:59:49;7.30;12.80
774;DHT22;370;48.810;9.150;2022-11-20T17:02:16;7.40;12.90
774;DHT22;370;48.810;9.150;2022-11-20T17:04:42;7.40;12.90
774;DHT22;370;48.810;9.150;2022-11-20T17:07:09;7.40;12.90
774;DHT22;370;48.810;9.150;2022-11-20T17:09:38;7.30;12.80
774;DHT22;370;48.810;9.150;2022-11-20T17:12:05;7.30;12.80
774;DHT22;370;48.810;9.150;2022-11-20T17:14:32;7.30;12.80
774;DHT22;370;48.810;9.150;2022-11-20T17:16:59;7.30;12.80
774;DHT22;370;48.810;9.150;2022-11-20T17:19:26;7.40;12.90
774;DHT22;370;48.810;9.150;2022-11-20T17:21:52;7.40;12.90
774;DHT22;370;48.810;9.150;2022-11-20T17:24:19;7.50;12.90